Time;durP1;ratioP1;P1;durP2;ratioP2;P2;SDS_P1;SDS_P2;PMS_P1;PMS_P2;Temp;Humidity;BMP_temperature;BMP_pressure;BME280_temperature;BME280_humidity;BME280_pressure;Samples;Min_cycle;Max_cycle;Signal;HPM_P1;HPM_P2
2021/08/21 00:00:38;;;;;;;5.20;3.53;;;;;;;15.12;99.52;96109.34;4916031;29;20422;-75
2021/08/21 00:03:06;;;;;;;4.83;3.20;;;;;;;15.08;100.00;96108.75;4916189;29;20600;-75
2021/08/21 00:05:33;;;;;;;9.60;3.50;;;;;;;15.04;100.00;96114.31;4915694;29;20464;-75
2021/08/21 00:07:58;;;;;;;4.00;3.63;;;;;;;15.04;99.91;96112.53;4914571;29;20471;-75
2021/08/21 00:10:26;;;;;;;7.93;3.50;;;;;;;14.97;100.00;96108.72;4915738;29;20468;-75
2021/08/21 00:12:52;;;;;;;4.47;3.45;;;;;;;14.90;100.00;96107.53;4915669;29;20422;-74
2021/08/21 00:15:19;;;;;;;4.07;3.37;;;;;;;14.87;100.00;96107.75;4915349;29;20439;-75
2021/08/21 00:17:44;;;;;;;4.93;3.33;;;;;;;14.88;100.00;96104.22;4914404;29;20468;-75
2021/08/21 00:20:10;;;;;;;5.60;3.88;;;;;;;14.91;100.00;96107.44;4915686;29;20819;-75
2021/08/21 00:22:37;;;;;;;10.80;3.88;;;;;;;14.91;100.00;96111.81;4915548;29;20501;-75
2021/08/21 00:25:03;;;;;;;6.37;4.03;;;;;;;14.94;100.00;96101.13;4914254;29;20445;-75
2021/08/21 00:27:29;;;;;;;4.30;3.47;;;;;;;14.95;100.00;96106.25;4915354;29;20439;-75
2021/08/21 00:29:55;;;;;;;5.28;3.55;;;;;;;14.95;100.00;96110.63;4915633;29;20791;-75
2021/08/21 00:32:20;;;;;;;4.82;3.63;;;;;;;14.96;100.00;96109.69;4915616;29;20433;-76
2021/08/21 00:34:46;;;;;;;4.67;3.80;;;;;;;14.99;100.00;96104.25;4915445;29;20524;-75
2021/08/21 00:37:12;;;;;;;5.20;3.83;;;;;;;14.99;100.00;96112.06;4914181;29;20429;-76
2021/08/21 00:39:38;;;;;;;5.45;3.60;;;;;;;15.00;100.00;96111.94;4915415;29;20429;-76
2021/08/21 00:42:05;;;;;;;4.00;3.60;;;;;;;15.02;100.00;96106.63;4915140;29;20433;-75
2021/08/21 00:44:30;;;;;;;3.35;3.05;;;;;;;15.03;100.00;96102.25;4915240;29;20537;-75
2021/08/21 00:47:00;;;;;;;4.70;3.53;;;;;;;14.98;100.00;96095.59;4914981;29;20870;-75
2021/08/21 00:49:26;;;;;;;4.22;3.58;;;;;;;14.96;100.00;96094.88;4915321;29;20472;-74
2021/08/21 00:51:51;;;;;;;5.13;3.90;;;;;;;14.98;100.00;96100.81;4915004;29;20828;-74
2021/08/21 00:54:16;;;;;;;5.68;3.55;;;;;;;14.99;100.00;96096.41;4915366;29;20444;-74
2021/08/21 00:56:43;;;;;;;8.53;3.33;;;;;;;14.99;100.00;96099.84;4914771;29;20425;-74
2021/08/21 00:59:09;;;;;;;4.25;3.33;;;;;;;14.94;100.00;96103.75;4914998;29;20456;-74
2021/08/21 01:01:35;;;;;;;4.53;3.28;;;;;;;14.93;100.00;96096.88;4914953;29;20512;-74
2021/08/21 01:04:00;;;;;;;4.00;3.47;;;;;;;14.89;100.00;96101.47;4914746;29;20428;-74
2021/08/21 01:06:26;;;;;;;3.63;3.20;;;;;;;14.87;100.00;96097.31;4913411;29;20432;-74
2021/08/21 01:08:51;;;;;;;5.40;3.70;;;;;;;14.85;100.00;96094.00;4914206;29;20437;-74
2021/08/21 01:11:17;;;;;;;4.43;3.57;;;;;;;14.84;100.00;96103.63;4914728;29;20807;-74
2021/08/21 01:13:43;;;;;;;4.13;3.70;;;;;;;14.85;100.00;96099.22;4914817;29;20437;-74
2021/08/21 01:16:09;;;;;;;6.63;3.85;;;;;;;14.80;100.00;96086.53;4913136;29;20430;-74
2021/08/21 01:18:35;;;;;;;4.30;3.43;;;;;;;14.80;100.00;96102.19;4914789;29;20436;-74
2021/08/21 01:21:01;;;;;;;4.40;3.43;;;;;;;14.74;100.00;96092.19;4914750;29;20457;-74
2021/08/21 01:23:27;;;;;;;6.60;3.37;;;;;;;14.69;100.00;96102.97;4914748;29;20487;-74
2021/08/21 01:25:52;;;;;;;3.47;3.10;;;;;;;14.68;100.00;96103.94;4914667;29;20568;-74
2021/08/21 01:28:19;;;;;;;3.70;3.33;;;;;;;14.63;100.00;96100.81;4914824;29;20832;-74
2021/08/21 01:30:45;;;;;;;3.85;3.40;;;;;;;14.61;100.00;96097.50;4913548;29;20441;-74
2021/08/21 01:33:10;;;;;;;4.23;3.80;;;;;;;14.59;100.00;96091.56;4914753;29;20508;-74
2021/08/21 01:35:36;;;;;;;4.50;3.58;;;;;;;14.61;100.00;96096.63;4914471;29;20512;-74
2021/08/21 01:38:02;;;;;;;3.90;3.40;;;;;;;14.52;100.00;96093.78;4914852;29;20440;-74
2021/08/21 01:40:27;;;;;;;3.50;3.05;;;;;;;14.50;100.00;96089.63;4914614;29;20437;-74
2021/08/21 01:42:52;;;;;;;3.83;3.40;;;;;;;14.44;100.00;96090.03;4914551;29;20465;-74
2021/08/21 01:45:19;;;;;;;3.53;2.83;;;;;;;14.41;100.00;96087.66;4914479;29;20519;-75
2021/08/21 01:47:45;;;;;;;3.67;2.97;;;;;;;14.35;99.56;96090.69;4914573;29;20433;-75
2021/08/21 01:50:16;;;;;;;4.55;3.38;;;;;;;14.26;100.00;96087.00;4913256;29;20440;-75
2021/08/21 01:52:42;;;;;;;3.45;3.15;;;;;;;14.26;99.54;96092.22;4913123;29;20431;-75
2021/08/21 01:55:08;;;;;;;4.50;3.00;;;;;;;14.22;99.57;96091.59;4914400;29;20433;-75
2021/08/21 01:57:38;;;;;;;4.22;3.17;;;;;;;14.18;99.29;96090.16;4914329;29;20433;-75
2021/08/21 02:00:05;;;;;;;4.15;3.10;;;;;;;14.14;99.62;96085.28;4914552;29;20453;-75
2021/08/21 02:02:31;;;;;;;3.65;3.35;;;;;;;14.14;100.00;96086.09;4914648;29;20886;-75
2021/08/21 02:04:57;;;;;;;3.83;3.42;;;;;;;14.09;100.00;96080.41;4914369;29;20433;-75
2021/08/21 02:07:22;;;;;;;3.40;2.83;;;;;;;14.10;100.00;96084.66;4912944;29;20431;-75
2021/08/21 02:09:47;;;;;;;4.73;3.70;;;;;;;14.12;100.00;96081.94;4914645;29;20456;-75
2021/08/21 02:12:16;;;;;;;5.73;3.10;;;;;;;14.11;100.00;96082.91;4914308;29;20834;-75
2021/08/21 02:14:42;;;;;;;3.47;3.17;;;;;;;14.12;100.00;96079.34;4914607;29;20428;-75
2021/08/21 02:17:07;;;;;;;4.50;3.40;;;;;;;14.11;100.00;96072.47;4914279;29;20429;-75
2021/08/21 02:19:34;;;;;;;3.72;3.08;;;;;;;14.08;100.00;96073.53;4916338;29;20425;-75
2021/08/21 02:22:02;;;;;;;4.70;3.33;;;;;;;14.02;100.00;96074.81;4917583;29;20547;-75
2021/08/21 02:24:28;;;;;;;3.83;2.90;;;;;;;14.00;100.00;96075.84;4916490;29;20441;-75
2021/08/21 02:26:56;;;;;;;5.15;3.15;;;;;;;13.99;100.00;96074.19;4917525;29;20429;-75
2021/08/21 02:29:21;;;;;;;5.10;3.60;;;;;;;13.97;100.00;96078.66;4917449;29;20882;-75
2021/08/21 02:31:47;;;;;;;5.67;3.60;;;;;;;13.91;99.01;96071.31;4917597;29;20465;-75
2021/08/21 02:34:13;;;;;;;2.97;2.67;;;;;;;13.87;97.90;96065.50;4916275;29;20417;-75
2021/08/21 02:36:41;;;;;;;5.18;3.13;;;;;;;13.74;99.18;96075.91;4917322;29;20425;-75
2021/08/21 02:39:07;;;;;;;5.65;3.45;;;;;;;13.71;99.63;96068.31;4917537;29;20429;-74
2021/08/21 02:41:33;;;;;;;3.80;3.10;;;;;;;13.65;99.60;96071.38;4917476;29;20430;-74
2021/08/21 02:43:58;;;;;;;5.80;3.13;;;;;;;13.62;100.00;96068.97;4917455;29;20425;-74
2021/08/21 02:46:24;;;;;;;4.53;3.10;;;;;;;13.66;100.00;96067.81;4917131;29;20421;-74
2021/08/21 02:48:49;;;;;;;5.63;3.67;;;;;;;13.69;100.00;96070.22;4917320;29;20437;-74
2021/08/21 02:51:15;;;;;;;4.90;3.33;;;;;;;13.69;100.00;96059.81;4917368;29;20484;-74
2021/08/21 02:53:41;;;;;;;8.25;3.65;;;;;;;13.74;100.00;96067.28;4946012;23;20546;-79
2021/08/21 02:56:07;;;;;;;4.32;3.30;;;;;;;13.74;100.00;96062.06;4938843;29;20818;-79
2021/08/21 02:58:32;;;;;;;2.87;2.63;;;;;;;13.77;100.00;96054.88;4937635;29;20428;-79
2021/08/21 03:00:58;;;;;;;5.50;3.17;;;;;;;13.74;100.00;96056.88;4936139;29;20433;-79
2021/08/21 03:03:23;;;;;;;3.17;2.83;;;;;;;13.69;100.00;96058.97;4932828;29;20431;-79
2021/08/21 03:05:48;;;;;;;5.22;3.00;;;;;;;13.62;100.00;96063.78;4938708;29;20431;-79
2021/08/21 03:08:14;;;;;;;5.03;3.00;;;;;;;13.58;99.78;96067.53;4938928;29;20450;-79
2021/08/21 03:10:41;;;;;;;4.60;3.43;;;;;;;13.50;100.00;96060.28;4937352;29;20992;-79
2021/08/21 03:13:06;;;;;;;7.60;3.30;;;;;;;13.52;100.00;96058.38;4938118;29;20932;-79
2021/08/21 03:15:32;;;;;;;6.27;3.50;;;;;;;13.52;100.00;96058.38;4935247;29;20522;-79
2021/08/21 03:17:58;;;;;;;5.57;3.90;;;;;;;13.52;100.00;96060.97;4938494;29;20546;-78
2021/08/21 03:20:24;;;;;;;5.63;3.40;;;;;;;13.51;100.00;96059.31;4938554;29;20493;-79
2021/08/21 03:22:49;;;;;;;14.93;4.10;;;;;;;13.44;100.00;96057.25;4936974;29;20486;-79
2021/08/21 03:25:15;;;;;;;4.72;3.70;;;;;;;13.49;100.00;96057.75;4937877;29;20431;-79
2021/08/21 03:27:42;;;;;;;5.83;3.10;;;;;;;13.55;98.36;96055.56;4936774;29;20431;-79
2021/08/21 03:30:08;;;;;;;6.07;3.28;;;;;;;13.52;97.64;96055.78;4935962;29;20436;-79
2021/08/21 03:32:34;;;;;;;4.18;3.00;;;;;;;13.47;97.59;96055.28;4938570;29;20446;-79
2021/08/21 03:34:59;;;;;;;4.40;3.57;;;;;;;13.32;99.73;96054.56;4937758;29;20423;-79
2021/08/21 03:37:25;;;;;;;3.40;3.10;;;;;;;13.29;100.00;96053.94;4936139;29;20450;-78
2021/08/21 03:39:50;;;;;;;5.27;3.03;;;;;;;13.32;99.37;96059.78;4936852;29;20910;-78
2021/08/21 03:42:16;;;;;;;3.50;3.08;;;;;;;13.21;100.00;96053.63;4937980;29;20785;-79
2021/08/21 03:44:43;;;;;;;5.25;3.35;;;;;;;13.20;100.00;96054.53;4937898;29;20837;-79
2021/08/21 03:47:09;;;;;;;8.35;3.42;;;;;;;13.07;100.00;96049.34;4936162;29;20447;-79
2021/08/21 03:49:35;;;;;;;3.80;3.20;;;;;;;13.02;100.00;96051.44;4937966;29;20495;-79
2021/08/21 03:52:00;;;;;;;4.22;3.50;;;;;;;13.00;100.00;96042.91;4937783;29;21000;-79
2021/08/21 03:54:25;;;;;;;4.10;3.20;;;;;;;13.01;100.00;96049.75;4937901;29;20933;-79
2021/08/21 03:56:51;;;;;;;3.17;2.87;;;;;;;13.04;100.00;96052.97;4952094;29;20461;-79
2021/08/21 03:59:17;;;;;;;4.00;3.00;;;;;;;13.07;100.00;96050.19;4944578;28;20469;-79
2021/08/21 04:01:43;;;;;;;2.88;2.67;;;;;;;13.14;100.00;96060.19;4937926;29;20428;-79
2021/08/21 04:04:09;;;;;;;8.02;3.17;;;;;;;13.17;100.00;96054.78;4920079;29;20497;-79
2021/08/21 04:06:36;;;;;;;6.53;2.90;;;;;;;13.18;100.00;96052.06;4917058;29;21003;-79
2021/08/21 04:09:02;;;;;;;2.13;1.93;;;;;;;13.23;99.11;96056.94;4917623;29;20441;-79
2021/08/21 04:11:27;;;;;;;2.40;2.10;;;;;;;13.22;98.92;96061.31;4926478;29;20427;-79
2021/08/21 04:13:52;;;;;;;2.50;2.30;;;;;;;13.06;99.46;96052.91;4936269;29;20467;-79
2021/08/21 04:16:18;;;;;;;2.75;1.98;;;;;;;12.98;100.00;96047.41;4935939;29;20435;-79
2021/08/21 04:18:45;;;;;;;2.63;1.70;;;;;;;12.97;100.00;96053.50;4938226;29;20428;-79
2021/08/21 04:21:11;;;;;;;3.03;2.15;;;;;;;12.98;100.00;96050.00;4936254;29;20465;-79
2021/08/21 04:23:36;;;;;;;2.40;2.00;;;;;;;12.97;100.00;96054.34;4937356;29;20449;-79
2021/08/21 04:26:02;;;;;;;3.38;2.55;;;;;;;13.01;100.00;96057.56;4936418;29;20494;-79
2021/08/21 04:28:27;;;;;;;5.22;2.03;;;;;;;13.04;100.00;96059.97;4930567;29;20515;-79
2021/08/21 04:30:53;;;;;;;4.20;2.13;;;;;;;13.06;100.00;96055.50;4918467;29;20951;-78
2021/08/21 04:33:19;;;;;;;2.40;2.20;;;;;;;13.08;100.00;96056.22;4927018;29;20471;-79
2021/08/21 04:35:46;;;;;;;2.70;2.28;;;;;;;13.06;100.00;96058.94;4946377;29;20476;-78
2021/08/21 04:38:11;;;;;;;4.88;2.67;;;;;;;13.08;100.00;96059.63;4956624;28;20476;-79
2021/08/21 04:40:37;;;;;;;4.67;2.40;;;;;;;13.08;100.00;96058.81;4955920;28;20988;-79
2021/08/21 04:43:02;;;;;;;2.67;2.33;;;;;;;13.08;100.00;96059.63;4953549;28;20425;-79
2021/08/21 04:45:28;;;;;;;3.42;2.60;;;;;;;13.06;100.00;96066.72;4944798;29;20439;-79
2021/08/21 04:47:53;;;;;;;2.72;2.53;;;;;;;13.05;100.00;96062.47;4936941;29;20455;-79
2021/08/21 04:50:19;;;;;;;5.20;2.97;;;;;;;13.11;100.00;96061.22;4935914;29;20465;-79
2021/08/21 04:52:46;;;;;;;3.87;2.97;;;;;;;13.12;100.00;96064.63;4936902;29;20454;-79
2021/08/21 04:55:11;;;;;;;4.03;3.20;;;;;;;13.19;100.00;96060.69;4935421;29;20495;-79
2021/08/21 04:57:37;;;;;;;4.00;2.50;;;;;;;13.19;100.00;96058.91;4936959;29;20423;-79
2021/08/21 05:00:03;;;;;;;3.73;2.50;;;;;;;13.21;100.00;96061.41;4937170;29;20411;-79
2021/08/21 05:02:29;;;;;;;9.60;2.75;;;;;;;13.23;100.00;96060.38;4935734;29;20423;-78
2021/08/21 05:04:54;;;;;;;4.27;2.73;;;;;;;13.41;100.00;96068.69;4935147;29;20475;-78
2021/08/21 05:07:20;;;;;;;4.90;3.13;;;;;;;13.52;100.00;96070.56;4934914;29;20431;-79
2021/08/21 05:09:46;;;;;;;3.17;2.73;;;;;;;13.54;100.00;96071.28;4934903;29;20455;-78
2021/08/21 05:12:12;;;;;;;3.60;3.00;;;;;;;13.49;100.00;96070.75;4935044;29;20431;-78
2021/08/21 05:14:37;;;;;;;3.20;2.87;;;;;;;13.53;100.00;96073.06;4935567;29;20490;-79
2021/08/21 05:17:05;;;;;;;4.30;3.33;;;;;;;13.48;100.00;96069.94;4934809;29;20913;-79
2021/08/21 05:19:49;;;;;;;3.85;3.33;;;;;;;13.47;100.00;96068.28;4937376;29;20420;-79
2021/08/21 05:22:39;;;;;;;4.10;3.20;;;;;;;13.43;100.00;96071.22;4936829;29;20527;-81
2021/08/21 05:25:07;;;;;;;4.25;2.92;;;;;;;13.52;100.00;96073.16;4941369;29;20514;-81
2021/08/21 05:27:33;;;;;;;3.53;2.78;;;;;;;13.65;100.00;96068.78;4932165;29;20431;-80
2021/08/21 05:29:58;;;;;;;2.30;1.80;;;;;;;13.74;100.00;96070.72;4944276;29;20467;-80
2021/08/21 05:32:24;;;;;;;3.47;2.00;;;;;;;13.70;100.00;96069.28;4941276;29;20794;-81
2021/08/21 05:34:49;;;;;;;2.50;2.30;;;;;;;13.74;100.00;96080.31;4942938;29;20463;-81
2021/08/21 05:37:15;;;;;;;6.60;3.57;;;;;;;13.78;100.00;96082.56;4940603;29;20553;-81
2021/08/21 05:39:40;;;;;;;5.40;3.70;;;;;;;13.86;100.00;96076.00;4942653;29;20468;-80
2021/08/21 05:42:07;;;;;;;3.83;3.37;;;;;;;13.86;100.00;96076.81;4937207;29;20427;-80
2021/08/21 05:44:33;;;;;;;4.00;3.60;;;;;;;13.91;100.00;96077.34;4941685;29;20432;-81
2021/08/21 05:46:58;;;;;;;5.90;3.70;;;;;;;13.90;100.00;96080.03;4941790;29;20428;-81
2021/08/21 05:49:23;;;;;;;5.00;3.90;;;;;;;13.90;100.00;96075.66;4942151;29;20439;-81
2021/08/21 05:51:49;;;;;;;3.60;3.23;;;;;;;13.94;100.00;96079.75;4940535;29;20439;-81
2021/08/21 05:54:14;;;;;;;5.10;4.00;;;;;;;13.89;100.00;96071.41;4941891;29;20503;-82
2021/08/21 05:56:40;;;;;;;3.97;3.58;;;;;;;13.96;100.00;96075.22;4940557;29;20439;-81
2021/08/21 05:59:06;;;;;;;3.80;3.50;;;;;;;13.97;100.00;96076.06;4942631;29;20427;-82
2021/08/21 06:01:32;;;;;;;4.50;3.50;;;;;;;14.01;100.00;96077.50;4942660;29;20439;-82
2021/08/21 06:03:57;;;;;;;4.73;3.60;;;;;;;14.08;100.00;96083.09;4943074;29;20435;-81
2021/08/21 06:06:24;;;;;;;5.33;3.80;;;;;;;14.04;100.00;96087.69;4942917;29;20529;-80
2021/08/21 06:08:49;;;;;;;3.90;3.50;;;;;;;14.15;100.00;96086.94;4945020;29;20423;-81
2021/08/21 06:11:15;;;;;;;5.57;4.07;;;;;;;14.24;100.00;96092.34;4943360;29;20423;-81
2021/08/21 06:13:40;;;;;;;4.87;3.70;;;;;;;14.26;100.00;96095.63;4944670;29;20780;-81
2021/08/21 06:16:07;;;;;;;4.10;3.70;;;;;;;14.19;100.00;96085.78;4944298;29;20424;-81
2021/08/21 06:18:33;;;;;;;3.70;3.40;;;;;;;14.32;100.00;96083.13;4943287;29;20470;-81
2021/08/21 06:20:58;;;;;;;4.20;3.80;;;;;;;14.39;100.00;96094.78;4944469;29;20438;-81
2021/08/21 06:23:24;;;;;;;6.23;3.53;;;;;;;14.43;100.00;96096.22;4942560;29;20490;-81
2021/08/21 06:25:49;;;;;;;6.97;4.13;;;;;;;14.42;100.00;96090.13;4944025;29;20580;-81
2021/08/21 06:28:15;;;;;;;4.90;3.83;;;;;;;14.64;100.00;96081.59;4942502;29;20483;-81
2021/08/21 06:30:41;;;;;;;3.90;3.40;;;;;;;14.79;99.25;96086.63;4943023;29;20435;-81
2021/08/21 06:33:08;;;;;;;5.15;3.80;;;;;;;14.72;100.00;96081.91;4942458;29;20427;-81
2021/08/21 06:35:33;;;;;;;5.53;3.72;;;;;;;14.84;100.00;96082.75;4941439;29;20514;-81
2021/08/21 06:37:59;;;;;;;8.90;4.20;;;;;;;14.98;97.90;96086.91;4942200;29;20470;-81
2021/08/21 06:40:24;;;;;;;5.45;4.30;;;;;;;15.05;98.52;96076.84;4943876;29;20479;-81
2021/08/21 06:42:50;;;;;;;5.43;4.30;;;;;;;15.19;97.07;96085.28;4942705;29;20435;-81
2021/08/21 06:45:15;;;;;;;4.50;3.87;;;;;;;15.25;96.77;96082.22;4942299;29;20519;-81
2021/08/21 06:47:41;;;;;;;8.33;4.27;;;;;;;15.41;97.10;96086.25;4942177;29;20782;-81
2021/08/21 06:50:09;;;;;;;5.78;3.80;;;;;;;15.43;96.58;96092.22;4942408;29;20446;-78
2021/08/21 06:52:35;;;;;;;5.63;4.13;;;;;;;15.47;95.44;96093.63;4939274;29;21043;-78
2021/08/21 06:55:00;;;;;;;5.60;4.03;;;;;;;15.47;95.36;96093.63;4937786;29;20522;-79
2021/08/21 06:57:26;;;;;;;8.50;4.30;;;;;;;15.50;96.05;96088.19;4937551;29;20491;-80
2021/08/21 06:59:51;;;;;;;5.13;4.13;;;;;;;15.92;95.65;96089.22;4939602;29;20427;-79
2021/08/21 07:02:17;;;;;;;5.75;3.88;;;;;;;16.28;91.92;96089.03;4937383;29;20423;-79
2021/08/21 07:04:42;;;;;;;5.23;3.77;;;;;;;16.47;91.17;96097.06;4936642;29;20976;-74
2021/08/21 07:07:09;;;;;;;6.70;4.03;;;;;;;16.72;90.98;96084.56;4938310;29;20491;-79
2021/08/21 07:09:36;;;;;;;6.75;4.05;;;;;;;16.67;89.21;96088.41;4938391;29;20428;-78
2021/08/21 07:12:02;;;;;;;5.55;4.13;;;;;;;16.87;89.25;96088.56;4937493;29;20431;-78
2021/08/21 07:14:28;;;;;;;5.80;3.90;;;;;;;17.21;87.80;96084.00;4933044;29;20427;-79
2021/08/21 07:16:53;;;;;;;6.55;4.18;;;;;;;17.35;86.27;96085.41;4938163;29;20471;-79
2021/08/21 07:19:19;;;;;;;5.18;3.88;;;;;;;17.46;85.46;96087.94;4940801;29;20475;-79
2021/08/21 07:21:44;;;;;;;4.50;4.00;;;;;;;17.85;85.37;96081.13;4938178;29;20985;-79
2021/08/21 07:24:11;;;;;;;5.07;3.80;;;;;;;18.21;83.80;96088.53;4940200;29;20940;-79
2021/08/21 07:26:36;;;;;;;6.53;4.32;;;;;;;18.31;81.38;96087.53;4938698;29;20419;-79
2021/08/21 07:29:02;;;;;;;4.53;3.92;;;;;;;18.19;80.72;96088.66;4939466;29;20482;-79
2021/08/21 07:31:28;;;;;;;5.85;4.60;;;;;;;18.08;82.08;96089.59;4940895;29;20455;-79
2021/08/21 07:33:53;;;;;;;5.27;4.10;;;;;;;18.14;82.73;96086.44;4941913;29;20464;-80
2021/08/21 07:36:19;;;;;;;4.83;4.10;;;;;;;18.49;83.13;96089.50;4940662;29;20462;-79
2021/08/21 07:38:45;;;;;;;6.03;3.95;;;;;;;18.97;82.51;96084.28;4941433;29;20427;-80
2021/08/21 07:41:12;;;;;;;5.67;3.80;;;;;;;19.32;79.06;96080.22;4938731;29;20435;-80
2021/08/21 07:43:37;;;;;;;5.20;3.87;;;;;;;19.48;79.05;96080.44;4943842;29;20431;-80
2021/08/21 07:46:03;;;;;;;7.00;4.00;;;;;;;19.82;78.31;96078.09;4945505;29;20445;-79
2021/08/21 07:48:28;;;;;;;6.72;3.75;;;;;;;20.06;75.51;96082.81;4946812;29;20434;-79
2021/08/21 07:50:53;;;;;;;4.20;3.80;;;;;;;20.23;77.11;96085.63;4945909;29;20434;-79
2021/08/21 07:53:19;;;;;;;4.20;3.83;;;;;;;19.96;73.23;96082.03;4946062;29;20437;-79
2021/08/21 07:55:46;;;;;;;4.10;3.50;;;;;;;20.23;74.39;96093.50;4942794;29;21266;-79
2021/08/21 07:58:13;;;;;;;6.50;4.27;;;;;;;20.51;70.24;96091.72;4945162;29;20432;-79
2021/08/21 08:00:38;;;;;;;8.45;3.80;;;;;;;20.40;70.00;96094.53;4943799;29;20438;-79
2021/08/21 08:03:04;;;;;;;4.10;3.70;;;;;;;20.83;68.13;96092.97;4943148;29;20435;-80
2021/08/21 08:05:29;;;;;;;5.77;4.17;;;;;;;21.10;67.64;96092.88;4942592;29;20467;-79
2021/08/21 08:07:55;;;;;;;7.00;3.80;;;;;;;21.21;70.08;96097.88;4942648;29;20516;-79
2021/08/21 08:10:20;;;;;;;4.82;3.60;;;;;;;21.10;67.13;96087.59;4942773;29;20431;-79
2021/08/21 08:12:46;;;;;;;4.87;3.73;;;;;;;21.15;68.99;96098.50;4943119;29;20423;-80
2021/08/21 08:15:13;;;;;;;7.03;3.93;;;;;;;20.95;66.72;96095.22;4943153;29;20521;-79
2021/08/21 08:17:38;;;;;;;3.92;3.45;;;;;;;20.74;67.03;96100.78;4944763;29;20953;-79
2021/08/21 08:20:06;;;;;;;3.80;3.37;;;;;;;20.70;67.35;96096.81;4944626;29;20419;-80
2021/08/21 08:22:32;;;;;;;5.63;3.80;;;;;;;20.79;68.73;96095.06;4943547;29;20424;-79
2021/08/21 08:24:57;;;;;;;4.27;3.57;;;;;;;20.96;66.96;96096.88;4944390;29;20482;-79
2021/08/21 08:27:22;;;;;;;5.07;3.50;;;;;;;20.74;67.57;96092.09;4942926;29;20495;-79
2021/08/21 08:29:48;;;;;;;7.20;3.87;;;;;;;20.87;66.48;96094.31;4942592;29;20427;-80
2021/08/21 08:32:15;;;;;;;3.90;3.50;;;;;;;20.73;67.07;96099.16;4942260;29;20937;-80
2021/08/21 08:34:40;;;;;;;5.25;3.85;;;;;;;21.40;66.97;96096.88;4944190;29;20431;-80
2021/08/21 08:37:09;;;;;;;9.43;3.50;;;;;;;21.53;65.38;96093.00;4942290;29;20487;-79
2021/08/21 08:39:35;;;;;;;4.57;3.05;;;;;;;21.64;66.58;96096.19;4942656;29;20937;-79
2021/08/21 08:42:01;;;;;;;9.57;3.93;;;;;;;21.43;66.01;96101.84;4941643;29;20423;-79
2021/08/21 08:44:27;;;;;;;4.85;2.97;;;;;;;21.82;66.95;96098.75;4941324;29;20541;-79
2021/08/21 08:46:54;;;;;;;4.38;3.60;;;;;;;21.96;66.18;96092.06;4941372;29;20463;-79
2021/08/21 08:49:21;;;;;;;8.05;3.90;;;;;;;21.90;64.41;96096.16;4941826;29;20443;-79
2021/08/21 08:51:47;;;;;;;4.32;3.47;;;;;;;22.02;64.41;96093.22;4942126;29;20471;-80
2021/08/21 08:54:13;;;;;;;5.00;4.07;;;;;;;22.01;63.93;96102.13;4945887;23;20451;-80
2021/08/21 08:56:38;;;;;;;5.73;3.90;;;;;;;22.09;63.83;96095.06;4936727;29;20436;-80
2021/08/21 08:59:03;;;;;;;5.22;4.03;;;;;;;22.48;63.13;96102.47;4939445;29;20465;-80
2021/08/21 09:01:29;;;;;;;5.23;4.33;;;;;;;22.28;62.62;96101.09;4938181;29;20482;-79
2021/08/21 09:04:12;;;;;;;4.68;3.67;;;;;;;22.48;62.97;96099.03;4937599;29;20793;-80
2021/08/21 09:06:39;;;;;;;5.90;3.83;;;;;;;22.77;65.11;96095.91;4939135;29;20506;-80
2021/08/21 09:09:09;;;;;;;8.10;4.50;;;;;;;22.77;62.59;96104.66;4937828;29;20491;-80
2021/08/21 09:11:40;;;;;;;10.00;5.30;;;;;;;22.70;62.17;96101.84;4937409;29;20862;-80
2021/08/21 09:14:15;;;;;;;5.97;4.63;;;;;;;22.50;62.79;96103.13;4936809;29;20510;-80
2021/08/21 09:16:40;;;;;;;6.27;4.90;;;;;;;22.68;62.24;96103.81;4932998;29;20423;-78
2021/08/21 09:19:06;;;;;;;6.10;4.90;;;;;;;22.71;62.21;96098.22;4932428;29;20998;-78
2021/08/21 09:21:32;;;;;;;9.50;5.23;;;;;;;22.86;63.51;96100.22;4930456;29;20438;-78
2021/08/21 09:23:59;;;;;;;5.50;4.65;;;;;;;23.39;62.51;96099.72;4933856;29;20419;-78
2021/08/21 09:26:36;;;;;;;6.20;4.47;;;;;;;23.07;62.44;96090.03;4932337;29;20508;-78
2021/08/21 09:29:02;;;;;;;7.47;4.78;;;;;;;23.04;62.69;96097.44;4937205;29;20786;-78
2021/08/21 09:31:30;;;;;;;6.07;4.90;;;;;;;23.02;63.11;96091.50;4940113;29;20427;-78
2021/08/21 09:34:00;;;;;;;8.87;4.70;;;;;;;23.24;63.64;96087.34;4938733;29;20470;-78
2021/08/21 09:36:30;;;;;;;5.47;4.40;;;;;;;23.53;60.30;96084.16;4938598;29;20427;-78
2021/08/21 09:38:55;;;;;;;8.23;4.28;;;;;;;23.51;60.61;96081.69;4939995;29;20479;-78
2021/08/21 09:41:22;;;;;;;11.63;5.60;;;;;;;23.41;61.42;96073.94;4940624;29;20427;-78
2021/08/21 09:43:48;;;;;;;8.43;4.97;;;;;;;23.55;61.07;96071.63;4941011;29;20427;-78
2021/08/21 09:46:16;;;;;;;8.07;4.20;;;;;;;23.84;60.62;96073.69;4939761;29;20430;-78
2021/08/21 09:48:58;;;;;;;7.30;4.83;;;;;;;23.59;59.80;96076.38;4938915;29;20423;-78
2021/08/21 09:51:39;;;;;;;7.63;4.30;;;;;;;23.63;60.30;96076.88;4938120;29;20526;-78
2021/08/21 09:54:07;;;;;;;6.05;4.60;;;;;;;23.54;61.64;96069.94;4938580;29;20454;-78
2021/08/21 09:56:36;;;;;;;6.28;4.38;;;;;;;23.40;61.68;96068.84;4938446;29;20442;-78
2021/08/21 09:59:02;;;;;;;8.35;4.45;;;;;;;23.71;61.20;96063.66;4940036;29;20427;-78
2021/08/21 10:01:29;;;;;;;7.80;4.80;;;;;;;23.65;61.15;96064.28;4938820;29;20909;-78
2021/08/21 10:03:55;;;;;;;6.03;4.40;;;;;;;23.79;61.67;96057.50;4939989;29;20858;-78
2021/08/21 10:06:20;;;;;;;6.63;4.57;;;;;;;24.16;60.78;96056.84;4938496;29;20442;-78
2021/08/21 10:08:46;;;;;;;6.13;4.30;;;;;;;24.84;60.82;96063.19;4938763;29;20510;-78
2021/08/21 10:11:12;;;;;;;5.03;4.32;;;;;;;25.37;58.59;96058.78;4939850;29;20802;-78
2021/08/21 10:13:42;;;;;;;5.30;4.38;;;;;;;25.44;56.91;96058.88;4938694;29;20431;-78
2021/08/21 10:16:09;;;;;;;6.15;4.35;;;;;;;25.10;57.09;96057.53;4939131;29;20441;-78
2021/08/21 10:18:35;;;;;;;4.75;4.20;;;;;;;25.09;55.98;96056.69;4940368;29;20921;-78
2021/08/21 10:21:00;;;;;;;5.40;4.13;;;;;;;25.17;57.09;96060.31;4938442;29;20877;-73
2021/08/21 10:23:26;;;;;;;7.43;4.32;;;;;;;25.27;57.45;96060.88;4940053;29;20482;-79
2021/08/21 10:25:57;;;;;;;5.50;4.22;;;;;;;25.26;55.09;96062.72;4939447;29;20424;-78
2021/08/21 10:28:23;;;;;;;4.70;4.10;;;;;;;25.24;56.11;96056.75;4939094;29;20458;-78
2021/08/21 10:30:50;;;;;;;7.57;4.88;;;;;;;25.79;55.87;96052.88;4939220;29;20466;-78
2021/08/21 10:33:16;;;;;;;5.80;4.63;;;;;;;25.92;52.81;96056.69;4939278;29;20427;-78
2021/08/21 10:35:45;;;;;;;6.32;4.90;;;;;;;26.22;58.02;96057.50;4938558;29;20486;-78
2021/08/21 10:38:39;;;;;;;5.93;4.50;;;;;;;26.50;55.76;96057.63;4940135;29;20475;-78
2021/08/21 10:41:33;;;;;;;6.22;4.90;;;;;;;25.74;54.71;96055.25;4936288;29;20434;-78
2021/08/21 10:43:58;;;;;;;5.97;4.27;;;;;;;25.47;53.64;96047.91;4936048;29;20528;-78
2021/08/21 10:46:52;;;;;;;6.70;5.07;;;;;;;25.70;53.81;96050.50;4935310;29;21081;-78
2021/08/21 10:49:45;;;;;;;8.65;5.30;;;;;;;25.32;53.85;96051.38;4927118;29;20508;-78
2021/08/21 10:52:46;;;;;;;5.50;4.68;;;;;;;25.46;55.82;96049.75;4929653;29;20961;-78
2021/08/21 10:55:14;;;;;;;6.38;4.55;;;;;;;25.56;55.55;96054.78;4924718;29;20437;-77
2021/08/21 10:57:54;;;;;;;5.30;4.10;;;;;;;26.22;56.50;96052.19;4935395;29;20474;-78
2021/08/21 11:00:44;;;;;;;5.10;4.60;;;;;;;25.86;53.51;96047.66;4935932;29;20431;-78
2021/08/21 11:03:13;;;;;;;5.82;4.32;;;;;;;25.88;53.78;96042.97;4937376;29;20527;-78
2021/08/21 11:05:53;;;;;;;9.02;4.55;;;;;;;25.92;52.53;96052.25;4942972;29;20424;-78
2021/08/21 11:08:20;;;;;;;7.47;4.25;;;;;;;26.38;52.08;96044.00;4945272;29;20430;-79
2021/08/21 11:10:46;;;;;;;4.70;3.95;;;;;;;26.49;51.08;96048.00;4941835;29;20459;-78
2021/08/21 11:13:45;;;;;;;8.27;3.42;;;;;;;26.22;49.48;96046.88;4947503;29;20435;-78
2021/08/21 11:16:11;;;;;;;5.90;4.27;;;;;;;26.51;50.77;96048.63;4941117;29;20435;-79
2021/08/21 11:18:45;;;;;;;5.20;4.23;;;;;;;26.38;50.29;96051.13;4941904;29;20436;-79
2021/08/21 11:21:31;;;;;;;4.63;4.13;;;;;;;26.41;51.80;96046.28;4941582;29;20416;-79
2021/08/21 11:23:57;;;;;;;6.78;4.43;;;;;;;26.60;51.77;96042.19;4937385;29;20440;-78
2021/08/21 11:26:22;;;;;;;6.30;4.00;;;;;;;26.85;50.94;96041.81;4936063;29;20492;-79
2021/08/21 11:29:05;;;;;;;4.65;3.67;;;;;;;26.61;49.07;96046.50;4936558;29;20419;-79